Time;durP1;ratioP1;P1;durP2;ratioP2;P2;SDS_P1;SDS_P2;PMS_P1;PMS_P2;Temp;Humidity;BMP_temperature;BMP_pressure;BME280_temperature;BME280_humidity;BME280_pressure;Samples;Min_cycle;Max_cycle;Signal;HPM_P1;HPM_P2
2022/10/14 00:01:31;;;;;;;13.30;10.83;;;;;;;12.56;100.00;99313.81;5052708;28;20197;-82
2022/10/14 00:04:01;;;;;;;18.83;11.00;;;;;;;12.59;100.00;99304.75;5050482;28;20670;-83
2022/10/14 00:06:32;;;;;;;16.93;10.70;;;;;;;12.60;100.00;99304.66;5053160;28;20221;-81
2022/10/14 00:09:08;;;;;;;15.47;10.50;;;;;;;12.59;100.00;99305.59;5053118;28;20200;-82
2022/10/14 00:11:38;;;;;;;15.23;10.33;;;;;;;12.61;100.00;99300.19;5052816;28;20232;-81
2022/10/14 00:14:10;;;;;;;14.80;10.10;;;;;;;12.65;100.00;99300.84;5046145;28;20193;-81
2022/10/14 00:16:42;;;;;;;15.77;11.23;;;;;;;12.56;100.00;99303.19;5053009;28;20192;-82
2022/10/14 00:19:16;;;;;;;17.63;11.03;;;;;;;12.69;100.00;99294.34;5053014;28;20190;-82
2022/10/14 00:21:45;;;;;;;13.63;10.73;;;;;;;12.74;100.00;99292.19;5048250;28;20632;-82
2022/10/14 00:24:17;;;;;;;14.97;11.33;;;;;;;12.76;100.00;99295.63;5056352;28;20201;-82
2022/10/14 00:26:48;;;;;;;19.00;12.40;;;;;;;12.84;100.00;99287.94;5057654;28;20711;-82
2022/10/14 00:29:18;;;;;;;17.20;11.40;;;;;;;12.99;100.00;99300.13;5009027;28;20225;-82
2022/10/14 00:31:47;;;;;;;13.90;10.90;;;;;;;12.94;100.00;99293.47;5006307;28;20252;-82
2022/10/14 00:34:20;;;;;;;15.20;10.63;;;;;;;12.98;100.00;99294.94;5005063;28;20222;-82
2022/10/14 00:36:49;;;;;;;13.43;10.67;;;;;;;12.92;100.00;99298.84;5005133;28;20203;-81
2022/10/14 00:39:18;;;;;;;14.87;10.43;;;;;;;13.00;100.00;99295.66;4950291;28;20232;-82
2022/10/14 00:41:46;;;;;;;15.97;10.97;;;;;;;12.85;100.00;99295.81;4948311;28;20322;-82
2022/10/14 00:44:52;;;;;;;16.10;11.10;;;;;;;12.83;100.00;99289.72;4947196;28;20220;-82
2022/10/14 00:47:20;;;;;;;13.67;10.70;;;;;;;12.93;100.00;99283.75;4954389;28;20200;-81
2022/10/14 00:49:52;;;;;;;16.63;10.70;;;;;;;12.99;100.00;99286.84;4953892;28;20200;-81
2022/10/14 00:52:23;;;;;;;15.73;10.80;;;;;;;12.96;100.00;99280.91;4948566;28;20197;-82
2022/10/14 00:54:55;;;;;;;16.70;10.70;;;;;;;12.98;100.00;99277.16;4954231;28;20267;-82
2022/10/14 00:57:26;;;;;;;13.90;10.53;;;;;;;13.00;100.00;99283.22;4983112;28;20206;-80
2022/10/14 01:00:01;;;;;;;12.63;10.23;;;;;;;12.94;100.00;99277.50;5020762;28;20204;-82
2022/10/14 01:02:31;;;;;;;13.67;10.03;;;;;;;12.89;100.00;99276.00;5053358;28;20224;-82
2022/10/14 01:05:02;;;;;;;14.67;10.33;;;;;;;13.01;100.00;99270.75;5054640;28;20694;-82
2022/10/14 01:07:44;;;;;;;18.00;12.73;;;;;;;12.97;100.00;99270.16;5050955;28;20205;-81
2022/10/14 01:10:24;;;;;;;19.43;13.07;;;;;;;12.92;100.00;99271.41;5051729;28;20664;-82
2022/10/14 01:13:08;;;;;;;15.37;12.47;;;;;;;12.94;100.00;99280.16;5053618;28;20197;-81
2022/10/14 01:15:46;;;;;;;21.50;12.57;;;;;;;12.89;100.00;99275.16;5051895;28;20332;-82
2022/10/14 01:18:28;;;;;;;15.93;11.13;;;;;;;12.86;100.00;99278.06;5052337;28;20193;-82
2022/10/14 01:21:09;;;;;;;13.30;10.57;;;;;;;12.84;100.00;99275.50;5049478;28;20262;-82
2022/10/14 01:24:07;;;;;;;14.07;11.17;;;;;;;12.84;100.00;99275.50;5055932;28;20357;-82
2022/10/14 01:26:56;;;;;;;17.00;11.80;;;;;;;12.96;100.00;99268.44;5047528;28;20197;-82
2022/10/14 01:29:52;;;;;;;19.67;14.23;;;;;;;12.96;100.00;99271.13;5053830;28;20273;-81
2022/10/14 01:32:27;;;;;;;19.57;14.77;;;;;;;13.04;100.00;99265.25;5058147;28;20228;-82
2022/10/14 01:35:07;;;;;;;21.73;15.63;;;;;;;12.97;100.00;99267.50;5047307;28;20254;-82
2022/10/14 01:37:42;;;;;;;25.53;15.13;;;;;;;12.85;100.00;99255.94;5050294;28;20201;-82
2022/10/14 01:40:17;;;;;;;20.20;16.03;;;;;;;12.87;100.00;99250.50;5062200;28;20196;-81
2022/10/14 01:42:50;;;;;;;25.40;18.13;;;;;;;12.98;100.00;99250.56;5068433;28;20254;-81
2022/10/14 01:45:22;;;;;;;27.53;19.50;;;;;;;12.86;100.00;99252.31;5055047;28;20189;-81
2022/10/14 01:47:54;;;;;;;29.30;20.20;;;;;;;13.00;100.00;99245.97;5051495;28;20711;-81
2022/10/14 01:50:25;;;;;;;29.77;20.80;;;;;;;12.93;100.00;99252.69;5049138;28;20223;-81
2022/10/14 01:52:58;;;;;;;31.87;21.23;;;;;;;12.95;100.00;99247.28;5047465;28;20205;-81
2022/10/14 01:55:31;;;;;;;29.20;21.03;;;;;;;12.99;100.00;99236.31;5000903;28;20206;-81
2022/10/14 01:58:01;;;;;;;31.63;23.30;;;;;;;13.05;100.00;99235.03;4991437;28;20203;-82
2022/10/14 02:00:29;;;;;;;35.00;24.10;;;;;;;12.80;100.00;99236.78;4988146;28;20207;-81
2022/10/14 02:02:59;;;;;;;33.90;23.43;;;;;;;12.96;100.00;99239.22;4992667;28;20207;-81
2022/10/14 02:05:34;;;;;;;34.53;23.17;;;;;;;12.83;100.00;99239.22;4993471;28;20195;-82
2022/10/14 02:08:12;;;;;;;34.73;23.37;;;;;;;13.02;100.00;99233.41;4989544;28;20788;-82
2022/10/14 02:11:05;;;;;;;38.37;25.33;;;;;;;13.04;100.00;99234.19;4992603;28;20266;-81
2022/10/14 02:13:50;;;;;;;36.57;25.53;;;;;;;12.94;100.00;99227.00;4996435;28;20288;-81
2022/10/14 02:16:26;;;;;;;37.20;24.90;;;;;;;13.04;100.00;99228.88;4995648;28;20245;-81
2022/10/14 02:19:03;;;;;;;37.37;25.70;;;;;;;13.02;100.00;99221.94;4991860;28;20198;-81
2022/10/14 02:21:36;;;;;;;40.60;27.27;;;;;;;12.96;100.00;99223.25;5054488;28;20201;-81
2022/10/14 02:24:09;;;;;;;41.40;26.70;;;;;;;12.89;100.00;99217.53;5057720;28;20239;-81
2022/10/14 02:26:40;;;;;;;40.47;28.07;;;;;;;12.93;100.00;99214.63;5058541;28;20201;-81
2022/10/14 02:29:08;;;;;;;44.97;28.77;;;;;;;13.02;100.00;99217.47;5061106;28;20189;-82
2022/10/14 02:31:41;;;;;;;50.80;30.23;;;;;;;12.86;100.00;99214.25;5059907;28;20196;-80
2022/10/14 02:34:14;;;;;;;45.83;30.43;;;;;;;12.83;100.00;99207.31;5058197;28;20200;-81
2022/10/14 02:36:44;;;;;;;48.83;31.17;;;;;;;12.91;100.00;99206.78;5048406;28;20197;-81
2022/10/14 02:39:18;;;;;;;44.43;29.60;;;;;;;12.87;100.00;99205.31;5048971;28;20197;-81
2022/10/14 02:41:46;;;;;;;48.20;31.53;;;;;;;12.91;100.00;99212.09;5048972;28;20196;-81
2022/10/14 02:44:15;;;;;;;46.67;32.00;;;;;;;12.87;100.00;99208.81;5053935;28;20213;-81
2022/10/14 02:46:43;;;;;;;49.67;30.40;;;;;;;12.96;100.00;99212.63;5049100;28;20190;-81
2022/10/14 02:49:14;;;;;;;46.47;31.50;;;;;;;13.05;100.00;99214.59;5050452;28;20208;-81
2022/10/14 02:51:43;;;;;;;49.93;32.90;;;;;;;12.99;100.00;99206.22;5053161;28;20247;-81
2022/10/14 02:54:12;;;;;;;54.43;34.20;;;;;;;12.86;100.00;99209.78;4992932;28;20667;-81
2022/10/14 02:56:40;;;;;;;55.53;33.77;;;;;;;12.86;100.00;99214.25;4986246;28;20203;-81
2022/10/14 02:59:09;;;;;;;54.40;34.17;;;;;;;12.92;100.00;99205.81;4990423;28;20187;-81
2022/10/14 03:01:37;;;;;;;54.43;34.83;;;;;;;12.93;100.00;99212.81;4989030;28;20206;-81
2022/10/14 03:04:05;;;;;;;62.87;35.33;;;;;;;12.93;100.00;99210.16;4990444;28;20394;-81
2022/10/14 03:06:36;;;;;;;56.57;34.93;;;;;;;13.05;100.00;99211.09;4984734;28;20253;-81
2022/10/14 03:09:05;;;;;;;57.17;34.87;;;;;;;13.12;100.00;99212.31;4987723;28;20690;-81
2022/10/14 03:11:33;;;;;;;55.10;35.27;;;;;;;13.16;100.00;99201.38;4981156;28;20285;-81
2022/10/14 03:14:01;;;;;;;54.87;33.73;;;;;;;13.12;100.00;99205.22;4986360;28;20238;-81
2022/10/14 03:16:30;;;;;;;58.53;34.87;;;;;;;12.90;100.00;99200.59;4989952;28;20214;-81
2022/10/14 03:18:59;;;;;;;59.70;33.80;;;;;;;13.01;100.00;99201.63;4991128;28;20311;-81
2022/10/14 03:21:28;;;;;;;62.23;35.37;;;;;;;12.92;100.00;99205.81;4986680;28;20198;-81
2022/10/14 03:24:00;;;;;;;55.80;35.43;;;;;;;13.13;100.00;99190.13;4982055;28;20223;-82
2022/10/14 03:26:29;;;;;;;56.80;34.20;;;;;;;13.13;100.00;99198.94;5046782;28;20197;-81
2022/10/14 03:28:57;;;;;;;60.00;36.10;;;;;;;13.08;100.00;99203.72;5050973;28;20192;-81
2022/10/14 03:31:26;;;;;;;59.23;35.50;;;;;;;13.14;100.00;99200.63;5053395;28;20201;-81
2022/10/14 03:33:54;;;;;;;62.90;36.90;;;;;;;12.97;100.00;99200.16;5045107;28;20197;-81
2022/10/14 03:36:22;;;;;;;61.80;36.33;;;;;;;13.00;100.00;99191.97;5048657;28;20644;-81
2022/10/14 03:38:51;;;;;;;56.80;34.03;;;;;;;13.00;100.00;99192.81;5046351;28;20189;-81
2022/10/14 03:41:21;;;;;;;55.07;33.70;;;;;;;13.09;100.00;99192.13;5044031;28;20220;-81
2022/10/14 03:43:49;;;;;;;55.07;34.53;;;;;;;13.09;100.00;99186.81;5049448;28;20224;-81
2022/10/14 03:46:17;;;;;;;51.70;33.20;;;;;;;13.09;100.00;99192.13;4990428;28;20211;-81
2022/10/14 03:48:46;;;;;;;55.47;33.60;;;;;;;13.00;100.00;99191.97;4985237;28;20202;-82
2022/10/14 03:51:15;;;;;;;56.33;33.53;;;;;;;13.11;100.00;99187.53;4985601;28;20199;-81
2022/10/14 03:53:43;;;;;;;57.60;34.47;;;;;;;12.96;100.00;99191.34;4987059;28;20362;-81
2022/10/14 03:56:11;;;;;;;56.70;33.77;;;;;;;12.86;100.00;99199.16;4991795;28;20199;-81
2022/10/14 03:58:41;;;;;;;49.47;32.67;;;;;;;12.98;100.00;99192.06;4984428;28;20253;-81
2022/10/14 04:01:09;;;;;;;53.93;32.67;;;;;;;13.02;100.00;99192.69;4985862;28;20259;-81
2022/10/14 04:03:40;;;;;;;55.70;34.43;;;;;;;13.08;100.00;99178.94;4992613;28;20192;-81
2022/10/14 04:06:09;;;;;;;55.20;33.57;;;;;;;13.10;100.00;99187.66;5049699;28;20247;-81
2022/10/14 04:08:38;;;;;;;52.10;31.33;;;;;;;13.01;100.00;99183.03;5047765;28;20212;-81
2022/10/14 04:11:07;;;;;;;48.27;30.90;;;;;;;13.00;100.00;99183.97;5049193;28;20229;-82
2022/10/14 04:13:36;;;;;;;52.30;30.83;;;;;;;13.07;100.00;99185.25;5047145;28;20197;-82
2022/10/14 04:16:07;;;;;;;51.40;31.17;;;;;;;12.96;100.00;99183.38;5046315;28;20258;-82
2022/10/14 04:18:36;;;;;;;47.77;30.60;;;;;;;13.04;100.00;99182.81;5053103;28;20190;-81
2022/10/14 04:21:07;;;;;;;48.97;29.33;;;;;;;13.03;100.00;99176.66;5050615;28;20197;-81
2022/10/14 04:23:36;;;;;;;47.27;28.40;;;;;;;13.06;100.00;99180.88;5055567;28;20189;-81
2022/10/14 04:26:05;;;;;;;45.83;29.80;;;;;;;13.10;100.00;99185.84;5057041;28;20221;-81
2022/10/14 04:28:35;;;;;;;46.13;28.50;;;;;;;13.00;100.00;99186.63;5056467;28;20246;-81
2022/10/14 04:31:06;;;;;;;44.50;28.03;;;;;;;13.02;100.00;99179.41;5050454;28;20208;-81
2022/10/14 04:33:35;;;;;;;41.30;27.17;;;;;;;13.03;100.00;99187.28;5050627;28;20201;-82
2022/10/14 04:36:09;;;;;;;47.80;28.90;;;;;;;13.02;100.00;99182.06;5048469;28;20205;-81
2022/10/14 04:38:37;;;;;;;44.57;28.30;;;;;;;13.01;100.00;99175.03;5056713;28;20196;-81
2022/10/14 04:41:06;;;;;;;43.53;29.40;;;;;;;12.98;100.00;99180.59;5055341;28;20189;-81
2022/10/14 04:43:34;;;;;;;40.03;27.13;;;;;;;12.91;100.00;99180.19;5051724;28;20197;-81
2022/10/14 04:46:03;;;;;;;41.67;28.00;;;;;;;12.88;100.00;99175.94;5053868;28;20216;-81
2022/10/14 04:48:33;;;;;;;42.13;27.13;;;;;;;12.85;100.00;99170.88;5051741;28;20200;-81
2022/10/14 04:51:01;;;;;;;44.57;27.40;;;;;;;12.98;100.00;99168.16;5055248;28;20197;-81
2022/10/14 04:53:30;;;;;;;43.43;28.17;;;;;;;13.00;100.00;99168.03;5050083;28;20193;-81
2022/10/14 04:55:58;;;;;;;43.93;29.27;;;;;;;13.00;100.00;99170.69;5052113;28;20193;-81
2022/10/14 04:58:27;;;;;;;44.77;28.40;;;;;;;12.94;100.00;99172.00;5047874;28;20239;-81
2022/10/14 05:00:55;;;;;;;44.50;28.47;;;;;;;13.02;100.00;99164.28;5054841;28;20258;-81
2022/10/14 05:03:24;;;;;;;38.50;26.87;;;;;;;13.02;100.00;99163.44;5051248;28;20189;-81
2022/10/14 05:05:54;;;;;;;41.57;26.80;;;;;;;12.97;100.00;99165.59;5050148;28;20221;-81
2022/10/14 05:08:22;;;;;;;40.97;25.93;;;;;;;13.16;100.00;99152.66;5046969;28;20189;-81
2022/10/14 05:10:51;;;;;;;37.83;26.60;;;;;;;13.07;100.00;99156.84;5053203;28;20232;-81
2022/10/14 05:13:19;;;;;;;40.63;27.37;;;;;;;13.01;100.00;99143.97;5047230;28;20719;-81
2022/10/14 05:15:48;;;;;;;39.07;26.73;;;;;;;13.01;100.00;99143.97;5048034;28;20212;-81
2022/10/14 05:18:17;;;;;;;38.93;26.00;;;;;;;13.03;100.00;99139.44;5052305;28;20264;-81
2022/10/14 05:20:45;;;;;;;39.20;24.73;;;;;;;12.95;100.00;99133.81;5049306;28;20196;-81
2022/10/14 05:23:15;;;;;;;37.53;26.13;;;;;;;13.08;100.00;99136.41;5050501;28;20690;-81
2022/10/14 05:25:43;;;;;;;38.63;26.00;;;;;;;13.03;100.00;99136.75;5050499;28;20271;-81
2022/10/14 05:28:12;;;;;;;35.70;24.73;;;;;;;12.95;100.00;99135.63;5051979;28;20231;-81
2022/10/14 05:30:41;;;;;;;37.60;24.93;;;;;;;12.89;100.00;99128.94;5050732;28;20196;-82
2022/10/14 05:33:10;;;;;;;34.37;24.10;;;;;;;13.10;100.00;99137.97;5049394;28;20205;-82
2022/10/14 05:35:39;;;;;;;33.47;23.50;;;;;;;13.00;100.00;99128.16;5051860;28;20189;-82
2022/10/14 05:38:27;;;;;;;36.10;23.67;;;;;;;12.96;100.00;99132.00;5055702;28;20204;-81
2022/10/14 05:40:57;;;;;;;34.20;22.47;;;;;;;12.96;100.00;99124.88;5052894;28;20212;-81
2022/10/14 05:43:26;;;;;;;31.90;22.30;;;;;;;12.97;100.00;99126.56;5055486;28;20200;-81
2022/10/14 05:45:59;;;;;;;32.27;21.83;;;;;;;12.90;100.00;99134.16;5051143;28;20212;-81
2022/10/14 05:48:27;;;;;;;33.57;21.67;;;;;;;12.90;100.00;99135.97;5055200;28;20251;-81
2022/10/14 05:51:00;;;;;;;46.10;30.03;;;;;;;13.03;100.00;99138.56;5053974;28;20212;-81
2022/10/14 05:53:31;;;;;;;33.90;23.23;;;;;;;12.95;100.00;99138.28;5054857;28;20674;-82
2022/10/14 05:56:04;;;;;;;38.23;25.73;;;;;;;12.95;100.00;99138.28;5049876;28;20197;-81
2022/10/14 05:58:33;;;;;;;50.67;29.50;;;;;;;13.02;100.00;99132.38;5052647;28;20243;-82
2022/10/14 06:01:02;;;;;;;38.47;25.13;;;;;;;13.00;100.00;99139.63;5055727;28;20251;-81
2022/10/14 06:03:31;;;;;;;31.07;21.93;;;;;;;13.06;100.00;99136.53;5054040;28;20209;-80
2022/10/14 06:06:01;;;;;;;31.13;21.70;;;;;;;12.93;100.00;99132.22;5053565;28;20595;-81
2022/10/14 06:08:31;;;;;;;30.37;20.97;;;;;;;12.87;100.00;99133.53;5054742;28;20205;-81
2022/10/14 06:11:04;;;;;;;30.13;20.53;;;;;;;12.88;100.00;99135.22;5054598;28;20225;-82
2022/10/14 06:13:32;;;;;;;30.50;20.53;;;;;;;13.02;100.00;99135.03;5055083;28;20342;-81
2022/10/14 06:16:03;;;;;;;31.63;21.50;;;;;;;13.04;100.00;99137.63;5050229;28;20201;-81
2022/10/14 06:18:32;;;;;;;37.93;22.90;;;;;;;13.03;100.00;99130.59;5048292;28;20664;-81
2022/10/14 06:21:00;;;;;;;36.13;24.47;;;;;;;13.09;100.00;99136.28;5052431;28;20201;-81
2022/10/14 06:23:29;;;;;;;35.80;23.57;;;;;;;13.11;100.00;99129.03;5054642;28;20337;-82
2022/10/14 06:25:59;;;;;;;38.97;24.63;;;;;;;13.10;100.00;99137.13;5052947;28;20259;-81
2022/10/14 06:28:27;;;;;;;37.23;24.43;;;;;;;12.91;100.00;99135.00;5051943;28;20194;-82
2022/10/14 06:30:56;;;;;;;34.07;23.33;;;;;;;13.18;100.00;99137.41;5046810;28;20235;-81
2022/10/14 06:33:24;;;;;;;43.47;25.63;;;;;;;13.17;100.00;99133.91;5049842;28;20208;-82
2022/10/14 06:35:53;;;;;;;42.80;24.90;;;;;;;13.23;100.00;99137.97;5046575;28;20216;-81
2022/10/14 06:38:22;;;;;;;37.57;24.43;;;;;;;13.09;100.00;99135.44;5049321;28;20201;-81
2022/10/14 06:40:51;;;;;;;40.67;25.13;;;;;;;13.27;100.00;99133.25;5053293;28;20201;-81
2022/10/14 06:43:22;;;;;;;40.10;24.47;;;;;;;13.21;100.00;99139.03;5048567;28;20221;-81
2022/10/14 06:45:53;;;;;;;37.10;24.27;;;;;;;13.27;100.00;99139.41;5051247;28;20213;-82
2022/10/14 06:48:22;;;;;;;32.43;22.87;;;;;;;13.40;100.00;99134.84;5049510;28;20207;-82
2022/10/14 06:50:51;;;;;;;31.73;21.70;;;;;;;13.20;100.00;99134.66;5051610;28;20200;-82
2022/10/14 06:53:19;;;;;;;30.10;20.70;;;;;;;13.29;100.00;99137.47;5049174;28;20266;-81
2022/10/14 06:55:48;;;;;;;28.60;20.27;;;;;;;13.17;100.00;99138.38;5053856;28;20189;-81
2022/10/14 06:58:16;;;;;;;29.57;20.53;;;;;;;13.24;100.00;99142.31;5049743;28;20235;-81
2022/10/14 07:00:46;;;;;;;29.53;20.57;;;;;;;13.32;100.00;99133.75;5047807;28;20243;-82
2022/10/14 07:03:15;;;;;;;30.30;20.80;;;;;;;13.40;100.00;99137.50;5049824;28;20201;-81
2022/10/14 07:05:44;;;;;;;33.27;22.93;;;;;;;13.38;100.00;99131.47;5050104;28;20206;-81
2022/10/14 07:08:12;;;;;;;34.97;22.83;;;;;;;13.32;100.00;99137.28;5048845;28;20192;-81
2022/10/14 07:10:43;;;;;;;38.83;23.53;;;;;;;13.30;100.00;99141.84;5050778;28;20232;-81
2022/10/14 07:13:11;;;;;;;35.87;23.53;;;;;;;13.38;100.00;99130.63;5047997;28;20189;-82
2022/10/14 07:15:40;;;;;;;34.87;24.00;;;;;;;13.38;100.00;99123.47;4932085;29;20228;-81
2022/10/14 07:18:10;;;;;;;36.70;23.87;;;;;;;13.36;100.00;99130.75;4926128;29;20261;-81
2022/10/14 07:20:39;;;;;;;38.63;24.70;;;;;;;13.35;100.00;99138.84;4933304;29;20208;-82
2022/10/14 07:23:07;;;;;;;34.77;23.57;;;;;;;13.38;100.00;99136.78;4928570;29;20200;-81
2022/10/14 07:25:36;;;;;;;35.60;23.57;;;;;;;13.35;100.00;99133.53;4929237;29;20200;-81
2022/10/14 07:28:04;;;;;;;36.27;24.37;;;;;;;13.39;100.00;99138.47;4926844;29;20271;-81
2022/10/14 07:30:33;;;;;;;33.03;23.03;;;;;;;13.35;100.00;99131.72;4931904;29;20254;-81
2022/10/14 07:33:01;;;;;;;35.23;24.83;;;;;;;13.40;100.00;99142.84;4948989;28;20243;-81
2022/10/14 07:35:31;;;;;;;31.47;24.00;;;;;;;13.40;100.00;99142.00;5042604;28;20250;-81
2022/10/14 07:38:00;;;;;;;36.47;23.53;;;;;;;13.36;100.00;99149.38;5049600;28;20197;-81
2022/10/14 07:40:29;;;;;;;36.60;21.87;;;;;;;13.22;100.00;99143.38;5055161;28;20199;-81
2022/10/14 07:42:58;;;;;;;34.03;21.20;;;;;;;13.33;100.00;99148.75;5051172;28;20201;-81
2022/10/14 07:45:29;;;;;;;33.40;22.50;;;;;;;13.35;100.00;99145.00;5052495;28;20201;-81
2022/10/14 07:47:57;;;;;;;29.43;20.63;;;;;;;13.33;100.00;99157.59;5047382;28;20225;-81
2022/10/14 07:50:26;;;;;;;30.77;21.53;;;;;;;13.15;100.00;99153.59;5046203;28;20254;-81
2022/10/14 07:52:56;;;;;;;31.80;20.67;;;;;;;13.25;100.00;99161.78;5047194;28;20200;-81
2022/10/14 07:55:29;;;;;;;28.70;21.17;;;;;;;13.40;100.00;99150.81;5052836;28;20204;-80
2022/10/14 07:57:58;;;;;;;31.40;23.03;;;;;;;13.30;100.00;99144.50;5045398;28;20197;-81
2022/10/14 08:00:27;;;;;;;32.67;23.63;;;;;;;13.33;100.00;99152.25;5047487;28;20196;-81
2022/10/14 08:02:56;;;;;;;31.93;22.87;;;;;;;13.46;100.00;99149.50;5044611;28;20201;-81
2022/10/14 08:05:25;;;;;;;36.27;24.27;;;;;;;13.33;100.00;99157.59;5044885;28;20208;-81
2022/10/14 08:08:11;;;;;;;36.77;26.00;;;;;;;13.36;100.00;99159.16;5052915;28;20216;-81
2022/10/14 08:10:42;;;;;;;37.23;25.10;;;;;;;13.51;100.00;99159.78;4987003;28;20752;-81
2022/10/14 08:13:11;;;;;;;35.03;24.70;;;;;;;13.53;100.00;99169.38;4984625;28;20191;-81
2022/10/14 08:15:42;;;;;;;39.87;27.33;;;;;;;13.59;100.00;99173.38;4983646;28;20234;-80
2022/10/14 08:18:12;;;;;;;38.27;25.90;;;;;;;13.64;100.00;99168.56;4985758;28;20203;-80
2022/10/14 08:20:40;;;;;;;42.33;27.90;;;;;;;13.60;100.00;99162.59;4984617;28;20599;-80
2022/10/14 08:23:11;;;;;;;45.17;27.80;;;;;;;13.63;100.00;99164.22;4983291;28;20202;-80
2022/10/14 08:25:48;;;;;;;42.00;27.47;;;;;;;13.58;100.00;99156.56;4958551;28;20271;-80
2022/10/14 08:28:16;;;;;;;41.10;27.67;;;;;;;13.60;100.00;99162.59;5003347;28;20213;-80
2022/10/14 08:30:47;;;;;;;44.73;28.80;;;;;;;13.66;100.00;99163.97;5052295;28;20200;-81
2022/10/14 08:33:15;;;;;;;42.67;28.87;;;;;;;13.80;100.00;99157.56;5048821;28;20250;-80
2022/10/14 08:35:44;;;;;;;43.53;28.40;;;;;;;13.71;100.00;99159.16;5042061;28;20207;-80
2022/10/14 08:38:23;;;;;;;45.17;30.40;;;;;;;13.63;100.00;99157.06;5047612;28;20204;-80
2022/10/14 08:41:03;;;;;;;43.13;30.00;;;;;;;13.62;100.00;99142.06;5051881;28;20201;-80
2022/10/14 08:43:39;;;;;;;47.50;30.50;;;;;;;13.63;100.00;99141.09;5048133;28;20247;-81
2022/10/14 08:46:19;;;;;;;46.30;30.43;;;;;;;13.61;100.00;99142.19;5052195;28;20197;-80
2022/10/14 08:48:49;;;;;;;47.37;30.63;;;;;;;13.66;100.00;99148.00;5053865;28;20243;-80
2022/10/14 08:51:19;;;;;;;45.63;31.27;;;;;;;13.65;100.00;99141.81;5043039;28;20185;-81
2022/10/14 08:53:54;;;;;;;49.13;32.20;;;;;;;13.69;100.00;99150.41;5049606;28;20718;-81
2022/10/14 08:56:25;;;;;;;52.13;33.70;;;;;;;13.69;100.00;99150.41;5048428;28;20220;-81
2022/10/14 08:59:00;;;;;;;51.47;34.77;;;;;;;13.77;100.00;99148.00;5043536;28;20288;-80
2022/10/14 09:01:31;;;;;;;55.30;35.30;;;;;;;13.75;100.00;99157.94;5047828;28;20224;-81
2022/10/14 09:04:05;;;;;;;50.27;34.37;;;;;;;13.71;100.00;99160.00;5048142;28;20652;-81
2022/10/14 09:06:39;;;;;;;55.07;34.53;;;;;;;13.71;100.00;99152.00;5048257;28;20232;-81
2022/10/14 09:09:20;;;;;;;58.33;35.73;;;;;;;13.70;100.00;99141.44;5050365;28;20221;-81
2022/10/14 09:11:53;;;;;;;50.63;33.60;;;;;;;13.83;100.00;99144.03;5052288;28;20282;-82
2022/10/14 09:14:26;;;;;;;51.77;34.77;;;;;;;13.65;100.00;99135.66;5055927;28;20274;-81
2022/10/14 09:17:00;;;;;;;53.00;34.30;;;;;;;13.71;100.00;99141.34;5057090;28;20248;-82
2022/10/14 09:19:32;;;;;;;50.33;34.17;;;;;;;13.69;100.00;99131.78;5052708;28;20211;-80
2022/10/14 09:22:02;;;;;;;47.50;32.13;;;;;;;13.70;100.00;99129.03;5050493;28;20193;-80
2022/10/14 09:24:35;;;;;;;52.00;33.93;;;;;;;13.75;100.00;99134.81;5019958;28;20228;-80
2022/10/14 09:27:06;;;;;;;49.17;32.50;;;;;;;13.73;100.00;99136.75;4989092;28;20272;-80
2022/10/14 09:29:43;;;;;;;47.03;33.33;;;;;;;13.74;100.00;99132.28;4990535;28;20195;-80
2022/10/14 09:32:21;;;;;;;45.50;31.60;;;;;;;13.81;100.00;99127.34;4991615;28;20195;-80
2022/10/14 09:34:51;;;;;;;47.43;32.50;;;;;;;13.77;100.00;99120.53;4993289;28;20202;-80
2022/10/14 09:37:27;;;;;;;45.37;31.27;;;;;;;13.85;100.00;99118.13;4987785;28;20733;-80
2022/10/14 09:40:01;;;;;;;41.17;30.00;;;;;;;13.81;100.00;99111.38;4988778;28;20198;-80
2022/10/14 09:42:42;;;;;;;41.53;28.57;;;;;;;13.91;100.00;99120.31;4991015;28;20196;-80
2022/10/14 09:45:13;;;;;;;39.43;28.07;;;;;;;13.86;100.00;99106.50;5019486;28;20193;-80
2022/10/14 09:47:50;;;;;;;39.40;27.97;;;;;;;13.91;100.00;99115.00;5053078;28;20213;-80
2022/10/14 09:50:27;;;;;;;41.70;28.60;;;;;;;13.93;100.00;99099.75;5050643;28;20189;-80
2022/10/14 09:53:01;;;;;;;37.87;27.13;;;;;;;13.86;100.00;99098.53;5051364;28;20636;-80
2022/10/14 09:55:32;;;;;;;44.17;28.13;;;;;;;13.89;100.00;99100.94;5046502;28;20200;-80
2022/10/14 09:58:05;;;;;;;40.27;27.90;;;;;;;13.92;100.00;99093.56;5051330;28;20201;-80
2022/10/14 10:00:37;;;;;;;37.60;27.83;;;;;;;13.89;100.00;99087.63;5056487;28;20199;-80
2022/10/14 10:03:07;;;;;;;38.50;26.47;;;;;;;13.91;100.00;99088.38;5051735;28;20189;-80
2022/10/14 10:05:41;;;;;;;37.80;26.90;;;;;;;13.91;100.00;99089.22;5050623;28;20220;-80
2022/10/14 10:08:19;;;;;;;36.43;26.00;;;;;;;13.97;100.00;99085.22;5052041;28;20255;-80
2022/10/14 10:11:00;;;;;;;40.80;28.40;;;;;;;14.08;100.00;99085.19;5054981;28;20244;-80
2022/10/14 10:13:38;;;;;;;42.27;28.43;;;;;;;14.06;100.00;99088.97;5054809;28;20197;-80
2022/10/14 10:16:18;;;;;;;39.90;28.27;;;;;;;14.14;100.00;99083.88;5048444;28;20193;-80
2022/10/14 10:18:48;;;;;;;40.80;29.03;;;;;;;14.09;100.00;99086.91;5053422;28;20197;-80
2022/10/14 10:21:19;;;;;;;41.67;28.40;;;;;;;14.06;100.00;99083.63;5050515;28;20197;-80
2022/10/14 10:23:56;;;;;;;39.77;28.43;;;;;;;14.03;100.00;99085.56;5055829;28;20224;-80
2022/10/14 10:26:30;;;;;;;45.93;29.73;;;;;;;14.00;100.00;99077.00;5050083;28;20205;-80
2022/10/14 10:29:01;;;;;;;41.43;28.57;;;;;;;14.13;100.00;99068.88;5053540;28;20247;-80
2022/10/14 10:32:02;;;;;;;42.67;29.83;;;;;;;14.04;100.00;99067.78;5053000;28;20200;-81
2022/10/14 10:34:57;;;;;;;40.33;29.33;;;;;;;14.01;100.00;99070.69;5055647;28;20200;-79
2022/10/14 10:37:29;;;;;;;42.57;30.40;;;;;;;14.00;100.00;99067.19;5053789;28;20733;-82
2022/10/14 10:40:21;;;;;;;40.00;29.40;;;;;;;14.06;100.00;99060.50;5055379;28;20257;-79
2022/10/14 10:43:11;;;;;;;47.27;31.17;;;;;;;14.13;100.00;99067.03;5053516;28;20209;-79
2022/10/14 10:45:57;;;;;;;43.77;30.00;;;;;;;14.14;100.00;99062.56;5049841;28;20197;-79
2022/10/14 10:48:33;;;;;;;39.87;29.10;;;;;;;14.21;100.00;99069.09;5050652;28;20216;-79
2022/10/14 10:51:06;;;;;;;39.87;28.30;;;;;;;14.26;100.00;99064.22;5051592;28;20262;-79
2022/10/14 10:54:02;;;;;;;39.00;27.40;;;;;;;14.24;100.00;99045.72;5050756;28;20255;-80
2022/10/14 10:56:48;;;;;;;34.20;25.10;;;;;;;14.27;100.00;99049.94;5050105;28;20251;-79
2022/10/14 10:59:46;;;;;;;38.17;26.03;;;;;;;14.28;100.00;99043.63;5052009;28;20193;-80
2022/10/14 11:02:56;;;;;;;32.10;24.00;;;;;;;14.36;100.00;99041.19;5052273;28;20201;-79
2022/10/14 11:05:50;;;;;;;29.30;22.80;;;;;;;14.38;100.00;99035.75;5057057;28;20193;-80
2022/10/14 11:14:33;;;;;;;29.90;21.77;;;;;;;14.66;100.00;99031.69;5054690;28;20247;-80
2022/10/14 11:17:11;;;;;;;29.33;20.53;;;;;;;14.54;100.00;99010.41;5046448;28;20201;-79
2022/10/14 11:19:49;;;;;;;29.60;22.13;;;;;;;14.54;100.00;99006.91;5053926;28;20545;-80
2022/10/14 11:22:37;;;;;;;23.00;19.47;;;;;;;14.58;100.00;98998.53;5053595;28;20262;-80
2022/10/14 11:25:21;;;;;;;25.80;19.80;;;;;;;14.62;100.00;98992.94;5053101;28;20266;-80
2022/10/14 11:27:58;;;;;;;27.07;18.93;;;;;;;14.65;100.00;98985.53;5048959;28;20189;-79
2022/10/14 11:30:43;;;;;;;23.53;19.30;;;;;;;14.76;100.00;98973.97;5050371;28;20228;-79
2022/10/14 11:33:29;;;;;;;25.00;17.67;;;;;;;14.73;100.00;98967.06;5053344;28;20212;-80
2022/10/14 11:36:16;;;;;;;23.03;17.47;;;;;;;14.74;100.00;98966.09;5052286;28;20194;-79
2022/10/14 11:39:00;;;;;;;24.33;17.40;;;;;;;14.78;100.00;98961.38;5053516;28;20246;-80
2022/10/14 11:41:39;;;;;;;26.43;18.17;;;;;;;14.74;100.00;98962.59;5052831;28;20189;-80